Time;durP1;ratioP1;P1;durP2;ratioP2;P2;SDS_P1;SDS_P2;PMS_P1;PMS_P2;Temp;Humidity;BMP_temperature;BMP_pressure;BME280_temperature;BME280_humidity;BME280_pressure;Samples;Min_cycle;Max_cycle;Signal;HPM_P1;HPM_P2
2022/03/16 00:00:08;;;;;;;;;;;22.10;28.90;;;;;;694168;28;818;-83
2022/03/16 00:00:28;;;;;;;;;;;22.10;28.20;;;;;;693482;28;1388;-83
2022/03/16 00:00:49;;;;;;;;;;;22.00;28.10;;;;;;688738;28;1244;-83
2022/03/16 00:01:09;;;;;;;;;;;22.10;28.50;;;;;;689356;28;943;-84
2022/03/16 00:01:30;;;;;;;;;;;22.10;28.40;;;;;;691374;28;844;-83
2022/03/16 00:01:51;;;;;;;;;;;22.00;28.60;;;;;;688653;28;1263;-83
2022/03/16 00:02:11;;;;;;;;;;;22.10;28.20;;;;;;688831;28;782;-84
2022/03/16 00:02:32;;;;;;;;;;;22.10;28.30;;;;;;689036;28;783;-84
2022/03/16 00:02:52;;;;;;;;;;;22.00;28.80;;;;;;688691;28;1210;-83
2022/03/16 00:03:13;;;;;;;;;;;22.10;28.10;;;;;;688771;28;822;-82
2022/03/16 00:03:33;;;;;;;;;;;22.10;28.10;;;;;;689116;28;819;-82
2022/03/16 00:03:55;;;;;;;;;;;22.10;28.30;;;;;;688635;28;1280;-83
2022/03/16 00:04:16;;;;;;;;;;;22.10;28.10;;;;;;688627;28;1449;-83
2022/03/16 00:04:36;;;;;;;;;;;22.30;29.20;;;;;;688692;28;846;-83
2022/03/16 00:04:58;;;;;;;;;;;19.00;27.30;;;;;;688785;28;866;-83
2022/03/16 00:05:18;;;;;;;;;;;22.00;28.50;;;;;;688751;28;866;-83
2022/03/16 00:05:39;;;;;;;;;;;22.00;28.50;;;;;;686523;28;1402;-83
2022/03/16 00:05:59;;;;;;;;;;;22.00;28.60;;;;;;688729;28;839;-83
2022/03/16 00:06:20;;;;;;;;;;;22.10;28.10;;;;;;689134;28;842;-83
2022/03/16 00:06:40;;;;;;;;;;;22.10;29.00;;;;;;691502;28;913;-83
2022/03/16 00:07:01;;;;;;;;;;;22.00;28.00;;;;;;691434;28;831;-83
2022/03/16 00:07:22;;;;;;;;;;;22.00;28.70;;;;;;691571;28;1259;-82
2022/03/16 00:07:42;;;;;;;;;;;22.00;28.00;;;;;;691314;28;1408;-83
2022/03/16 00:08:03;;;;;;;;;;;22.00;28.20;;;;;;688682;28;1214;-82
2022/03/16 00:08:27;;;;;;;;;;;22.00;28.10;;;;;;688725;28;905;-83
2022/03/16 00:08:48;;;;;;;;;;;22.00;28.00;;;;;;688777;28;815;-83
2022/03/16 00:09:08;;;;;;;;;;;22.10;28.30;;;;;;688796;28;771;-83
2022/03/16 00:09:29;;;;;;;;;;;22.10;29.00;;;;;;688649;28;1427;-83
2022/03/16 00:09:49;;;;;;;;;;;22.00;28.00;;;;;;689468;28;913;-83
2022/03/16 00:10:10;;;;;;;;;;;22.00;28.00;;;;;;688609;28;1323;-82
2022/03/16 00:10:31;;;;;;;;;;;22.00;28.20;;;;;;685897;28;1413;-83
2022/03/16 00:10:52;;;;;;;;;;;22.00;28.00;;;;;;686208;28;1224;-82
2022/03/16 00:11:13;;;;;;;;;;;22.00;28.60;;;;;;686254;28;1151;-82
2022/03/16 00:11:33;;;;;;;;;;;22.00;28.10;;;;;;686041;28;1280;-82
2022/03/16 00:11:54;;;;;;;;;;;22.00;28.00;;;;;;683805;28;1272;-83
2022/03/16 00:12:15;;;;;;;;;;;22.00;28.20;;;;;;683569;28;1228;-83
2022/03/16 00:12:36;;;;;;;;;;;22.00;27.90;;;;;;685561;28;819;-83
2022/03/16 00:12:57;;;;;;;;;;;22.00;27.90;;;;;;685545;28;1328;-82
2022/03/16 00:13:17;;;;;;;;;;;22.00;28.10;;;;;;683915;28;791;-83
2022/03/16 00:13:38;;;;;;;;;;;21.90;28.50;;;;;;686457;28;826;-83
2022/03/16 00:13:59;;;;;;;;;;;22.00;28.30;;;;;;686448;28;1337;-83
2022/03/16 00:14:20;;;;;;;;;;;22.00;28.00;;;;;;689074;28;1343;-83
2022/03/16 00:14:40;;;;;;;;;;;22.00;28.10;;;;;;691372;28;815;-82
2022/03/16 00:15:01;;;;;;;;;;;22.00;28.30;;;;;;688559;28;1347;-83
2022/03/16 00:15:24;;;;;;;;;;;22.00;28.50;;;;;;686256;28;1100;-84
2022/03/16 00:15:44;;;;;;;;;;;22.00;28.10;;;;;;686748;28;826;-83
2022/03/16 00:16:05;;;;;;;;;;;22.00;28.10;;;;;;688698;28;913;-83
2022/03/16 00:16:26;;;;;;;;;;;22.00;28.20;;;;;;688697;28;894;-83
2022/03/16 00:16:46;;;;;;;;;;;22.00;28.10;;;;;;689271;28;878;-83
2022/03/16 00:17:07;;;;;;;;;;;22.00;28.70;;;;;;689249;28;1914;-82
2022/03/16 00:17:28;;;;;;;;;;;22.00;28.00;;;;;;691436;28;787;-83
2022/03/16 00:17:48;;;;;;;;;;;22.00;28.60;;;;;;691405;28;569;-83
2022/03/16 00:18:12;;;;;;;;;;;22.00;28.10;;;;;;691494;28;849;-83
2022/03/16 00:18:32;;;;;;;;;;;22.00;28.70;;;;;;691433;28;854;-82
2022/03/16 00:18:53;;;;;;;;;;;22.00;28.10;;;;;;691430;28;846;-82
2022/03/16 00:19:14;;;;;;;;;;;22.00;28.10;;;;;;691684;28;905;-82
2022/03/16 00:19:35;;;;;;;;;;;22.00;28.20;;;;;;691659;28;803;-82
2022/03/16 00:19:55;;;;;;;;;;;22.00;28.10;;;;;;691319;28;1359;-84
2022/03/16 00:20:16;;;;;;;;;;;22.00;28.30;;;;;;691339;28;1142;-84
2022/03/16 00:20:36;;;;;;;;;;;22.00;28.80;;;;;;691277;28;1350;-84
2022/03/16 00:20:58;;;;;;;;;;;22.00;28.20;;;;;;688671;28;1169;-85
2022/03/16 00:21:19;;;;;;;;;;;22.00;28.10;;;;;;688795;28;823;-83
2022/03/16 00:21:40;;;;;;;;;;;22.00;28.30;;;;;;689131;28;772;-83
2022/03/16 00:22:01;;;;;;;;;;;22.00;28.00;;;;;;691402;28;916;-81
2022/03/16 00:22:21;;;;;;;;;;;22.00;28.00;;;;;;691456;28;767;-82
2022/03/16 00:22:42;;;;;;;;;;;22.00;28.60;;;;;;689151;28;799;-82
2022/03/16 00:23:03;;;;;;;;;;;22.00;28.00;;;;;;691438;28;823;-83
2022/03/16 00:23:23;;;;;;;;;;;22.00;28.30;;;;;;691465;28;898;-82
2022/03/16 00:23:44;;;;;;;;;;;22.00;28.00;;;;;;691412;28;874;-83
2022/03/16 00:24:04;;;;;;;;;;;22.00;28.00;;;;;;691379;28;891;-83
2022/03/16 00:24:25;;;;;;;;;;;22.00;28.00;;;;;;691563;28;1344;-83
2022/03/16 00:24:46;;;;;;;;;;;22.00;28.30;;;;;;694087;28;894;-83
2022/03/16 00:25:07;;;;;;;;;;;22.00;28.30;;;;;;694154;28;806;-83
2022/03/16 00:25:27;;;;;;;;;;;22.00;28.00;;;;;;694130;28;787;-83
2022/03/16 00:25:48;;;;;;;;;;;22.00;28.20;;;;;;694039;28;1448;-84
2022/03/16 00:26:08;;;;;;;;;;;22.00;28.50;;;;;;691442;28;1141;-84
2022/03/16 00:26:29;;;;;;;;;;;22.00;28.00;;;;;;691321;28;902;-84
2022/03/16 00:26:49;;;;;;;;;;;22.10;28.80;;;;;;688564;28;1273;-83
2022/03/16 00:27:10;;;;;;;;;;;22.00;28.10;;;;;;685882;28;1672;-83
2022/03/16 00:27:30;;;;;;;;;;;22.10;28.00;;;;;;685997;28;1322;-83
2022/03/16 00:27:51;;;;;;;;;;;22.00;28.00;;;;;;686213;28;787;-84
2022/03/16 00:28:12;;;;;;;;;;;22.00;28.30;;;;;;688670;28;957;-83
2022/03/16 00:28:32;;;;;;;;;;;22.00;28.00;;;;;;686126;28;1225;-83
2022/03/16 00:28:53;;;;;;;;;;;22.00;28.20;;;;;;686156;28;1189;-83
2022/03/16 00:29:14;;;;;;;;;;;22.00;28.50;;;;;;688625;28;922;-83
2022/03/16 00:29:34;;;;;;;;;;;22.00;28.10;;;;;;688681;28;810;-83
2022/03/16 00:29:55;;;;;;;;;;;22.00;28.60;;;;;;688563;28;787;-83
2022/03/16 00:30:15;;;;;;;;;;;22.10;28.10;;;;;;688699;28;831;-84
2022/03/16 00:30:37;;;;;;;;;;;22.10;27.90;;;;;;688743;28;1223;-84
2022/03/16 00:30:57;;;;;;;;;;;22.00;27.90;;;;;;691361;28;826;-83
2022/03/16 00:31:18;;;;;;;;;;;22.00;28.20;;;;;;688543;28;1474;-84
2022/03/16 00:31:38;;;;;;;;;;;22.00;28.00;;;;;;688579;28;1237;-83
2022/03/16 00:31:59;;;;;;;;;;;22.00;28.00;;;;;;691361;28;850;-81
2022/03/16 00:32:20;;;;;;;;;;;22.10;28.00;;;;;;688201;28;1829;-84
2022/03/16 00:32:40;;;;;;;;;;;22.10;28.50;;;;;;685984;28;854;-83
2022/03/16 00:33:01;;;;;;;;;;;22.00;28.10;;;;;;686250;28;887;-84
2022/03/16 00:33:21;;;;;;;;;;;22.10;27.90;;;;;;688556;28;1388;-84
2022/03/16 00:33:42;;;;;;;;;;;22.10;28.30;;;;;;688672;28;803;-84
2022/03/16 00:34:03;;;;;;;;;;;22.00;28.00;;;;;;688635;28;940;-84
2022/03/16 00:34:23;;;;;;;;;;;22.00;28.10;;;;;;685966;28;1201;-83
2022/03/16 00:34:44;;;;;;;;;;;22.00;28.00;;;;;;686252;28;1017;-83
2022/03/16 00:35:04;;;;;;;;;;;22.00;28.00;;;;;;688833;28;1362;-84
2022/03/16 00:35:25;;;;;;;;;;;22.10;28.20;;;;;;688562;28;1105;-84
2022/03/16 00:35:46;;;;;;;;;;;22.10;28.30;;;;;;688565;28;1267;-83
2022/03/16 00:36:06;;;;;;;;;;;22.00;28.30;;;;;;688587;28;1234;-83
2022/03/16 00:36:27;;;;;;;;;;;22.10;28.50;;;;;;688731;28;815;-83
2022/03/16 00:36:48;;;;;;;;;;;22.10;27.90;;;;;;685959;28;1075;-85
2022/03/16 00:37:08;;;;;;;;;;;22.10;28.00;;;;;;685924;28;1894;-84
2022/03/16 00:37:29;;;;;;;;;;;22.10;28.10;;;;;;686210;28;861;-84
2022/03/16 00:37:49;;;;;;;;;;;22.10;28.10;;;;;;688935;28;803;-84
2022/03/16 00:38:13;;;;;;;;;;;22.10;28.40;;;;;;691282;28;1306;-83
2022/03/16 00:38:33;;;;;;;;;;;22.10;28.30;;;;;;689282;28;1211;-84
2022/03/16 00:38:54;;;;;;;;;;;22.10;28.40;;;;;;691228;28;1085;-84
2022/03/16 00:39:14;;;;;;;;;;;22.00;27.90;;;;;;691389;28;842;-84
2022/03/16 00:39:35;;;;;;;;;;;22.00;27.90;;;;;;691411;28;855;-83
2022/03/16 00:39:56;;;;;;;;;;;22.00;27.90;;;;;;691229;28;1653;-84
2022/03/16 00:40:16;;;;;;;;;;;22.00;28.70;;;;;;691615;28;764;-83
2022/03/16 00:40:37;;;;;;;;;;;22.00;27.90;;;;;;693787;28;1337;-83
2022/03/16 00:40:57;;;;;;;;;;;22.00;28.20;;;;;;691181;28;1365;-83
2022/03/16 00:41:18;;;;;;;;;;;22.10;28.00;;;;;;691373;28;1345;-83
2022/03/16 00:41:38;;;;;;;;;;;22.00;28.20;;;;;;691593;28;509;-83
2022/03/16 00:41:59;;;;;;;;;;;22.00;28.00;;;;;;693972;28;783;-83
2022/03/16 00:42:20;;;;;;;;;;;22.10;27.70;;;;;;693790;28;831;-84
2022/03/16 00:42:41;;;;;;;;;;;22.10;28.30;;;;;;691315;28;901;-84
2022/03/16 00:43:01;;;;;;;;;;;22.00;28.70;;;;;;690844;28;1291;-82
2022/03/16 00:43:22;;;;;;;;;;;22.00;28.50;;;;;;691633;28;771;-82
2022/03/16 00:43:43;;;;;;;;;;;22.00;28.00;;;;;;691597;28;787;-83
2022/03/16 00:44:04;;;;;;;;;;;22.10;27.70;;;;;;691523;28;822;-83
2022/03/16 00:44:25;;;;;;;;;;;22.00;27.70;;;;;;691518;28;1420;-83
2022/03/16 00:44:46;;;;;;;;;;;22.00;27.80;;;;;;691607;28;889;-82
2022/03/16 00:45:07;;;;;;;;;;;22.00;27.70;;;;;;691433;28;1100;-81
2022/03/16 00:45:27;;;;;;;;;;;22.10;28.60;;;;;;691433;28;1050;-82
2022/03/16 00:45:48;;;;;;;;;;;22.00;27.80;;;;;;691492;28;1311;-83
2022/03/16 00:46:08;;;;;;;;;;;22.00;27.70;;;;;;691489;28;909;-82
2022/03/16 00:46:29;;;;;;;;;;;22.00;27.80;;;;;;691574;28;854;-83
2022/03/16 00:46:49;;;;;;;;;;;22.10;28.30;;;;;;691210;28;1185;-83
2022/03/16 00:47:10;;;;;;;;;;;22.00;28.40;;;;;;691322;28;839;-83
2022/03/16 00:47:31;;;;;;;;;;;22.00;27.90;;;;;;691408;28;961;-83
2022/03/16 00:47:51;;;;;;;;;;;22.10;28.30;;;;;;691446;28;850;-82
2022/03/16 00:48:12;;;;;;;;;;;22.10;27.90;;;;;;691213;28;1404;-83
2022/03/16 00:48:32;;;;;;;;;;;22.00;27.80;;;;;;691372;28;949;-83
2022/03/16 00:48:53;;;;;;;;;;;22.10;27.90;;;;;;691620;28;862;-83
2022/03/16 00:49:13;;;;;;;;;;;22.10;28.00;;;;;;691467;28;1237;-83
2022/03/16 00:49:34;;;;;;;;;;;22.00;27.80;;;;;;688524;28;834;-83
2022/03/16 00:49:54;;;;;;;;;;;22.00;27.80;;;;;;688620;28;858;-83
2022/03/16 00:50:15;;;;;;;;;;;22.00;27.70;;;;;;688544;28;1349;-83
2022/03/16 00:50:36;;;;;;;;;;;22.10;27.80;;;;;;688625;28;926;-83
2022/03/16 00:50:57;;;;;;;;;;;22.10;27.90;;;;;;686162;28;1121;-84
2022/03/16 00:51:17;;;;;;;;;;;22.00;27.70;;;;;;688909;28;486;-82
2022/03/16 00:51:38;;;;;;;;;;;22.00;27.50;;;;;;691435;28;815;-83
2022/03/16 00:51:59;;;;;;;;;;;22.00;27.70;;;;;;691270;28;816;-83
2022/03/16 00:52:20;;;;;;;;;;;22.10;27.90;;;;;;691321;28;815;-83
2022/03/16 00:52:40;;;;;;;;;;;22.10;27.80;;;;;;691662;28;811;-82
2022/03/16 00:53:01;;;;;;;;;;;21.00;27.70;;;;;;694047;28;885;-83
2022/03/16 00:53:21;;;;;;;;;;;22.00;28.30;;;;;;691214;28;1413;-83
2022/03/16 00:53:42;;;;;;;;;;;22.10;28.10;;;;;;691292;28;891;-83
2022/03/16 00:54:02;;;;;;;;;;;22.10;27.90;;;;;;691262;28;819;-83
2022/03/16 00:54:23;;;;;;;;;;;22.00;27.80;;;;;;691315;28;870;-83
2022/03/16 00:54:43;;;;;;;;;;;22.10;28.20;;;;;;691328;28;877;-82
2022/03/16 00:55:04;;;;;;;;;;;22.00;28.40;;;;;;691322;28;842;-83
2022/03/16 00:55:25;;;;;;;;;;;22.00;28.30;;;;;;691515;28;1152;-83
2022/03/16 00:55:45;;;;;;;;;;;22.00;28.30;;;;;;691270;28;1361;-82
2022/03/16 00:56:07;;;;;;;;;;;22.00;28.20;;;;;;691288;28;961;-83
2022/03/16 00:56:27;;;;;;;;;;;22.00;27.70;;;;;;691286;28;961;-83
2022/03/16 00:56:48;;;;;;;;;;;22.00;28.10;;;;;;691459;28;794;-82
2022/03/16 00:57:08;;;;;;;;;;;22.00;27.90;;;;;;688487;28;1910;-83
2022/03/16 00:57:31;;;;;;;;;;;22.00;27.90;;;;;;688533;28;1224;-83
2022/03/16 00:57:51;;;;;;;;;;;22.00;28.40;;;;;;688676;28;859;-83
2022/03/16 00:58:12;;;;;;;;;;;22.00;27.80;;;;;;688658;28;791;-83
2022/03/16 00:58:32;;;;;;;;;;;22.00;27.80;;;;;;688695;28;815;-83
2022/03/16 00:58:53;;;;;;;;;;;22.00;27.70;;;;;;689166;28;811;-83
2022/03/16 00:59:13;;;;;;;;;;;22.00;28.20;;;;;;691358;28;1404;-83
2022/03/16 00:59:34;;;;;;;;;;;22.00;28.80;;;;;;691301;28;918;-83
2022/03/16 00:59:54;;;;;;;;;;;22.00;27.80;;;;;;688500;28;855;-82
2022/03/16 01:00:15;;;;;;;;;;;22.00;28.00;;;;;;688622;28;830;-83
2022/03/16 01:00:36;;;;;;;;;;;22.00;28.40;;;;;;688623;28;874;-83
2022/03/16 01:00:57;;;;;;;;;;;22.00;28.00;;;;;;688604;28;881;-83
2022/03/16 01:01:18;;;;;;;;;;;22.00;28.00;;;;;;686109;28;1366;-83
2022/03/16 01:01:38;;;;;;;;;;;22.00;27.90;;;;;;688901;28;1366;-83
2022/03/16 01:01:59;;;;;;;;;;;22.10;27.90;;;;;;691337;28;849;-83
2022/03/16 01:02:19;;;;;;;;;;;21.90;27.90;;;;;;691279;28;922;-82
2022/03/16 01:02:40;;;;;;;;;;;22.00;28.60;;;;;;688576;28;1353;-83
2022/03/16 01:03:00;;;;;;;;;;;22.00;27.80;;;;;;688895;28;835;-83
2022/03/16 01:03:21;;;;;;;;;;;22.00;27.80;;;;;;691133;28;827;-83
2022/03/16 01:03:41;;;;;;;;;;;21.90;27.90;;;;;;690971;28;946;-83
2022/03/16 01:04:02;;;;;;;;;;;22.00;27.90;;;;;;691263;28;807;-84
2022/03/16 01:04:23;;;;;;;;;;;21.90;28.50;;;;;;691186;28;1330;-83
2022/03/16 01:04:43;;;;;;;;;;;22.00;28.10;;;;;;691494;28;870;-83
2022/03/16 01:05:05;;;;;;;;;;;22.00;28.00;;;;;;691477;28;944;-83
2022/03/16 01:05:25;;;;;;;;;;;22.00;27.70;;;;;;691452;28;1299;-83
2022/03/16 01:05:46;;;;;;;;;;;22.00;27.90;;;;;;691569;28;858;-83
2022/03/16 01:06:15;;;;;;;;;;;21.90;27.90;;;;;;691071;28;1397;-83
2022/03/16 01:06:35;;;;;;;;;;;22.00;27.80;;;;;;691342;28;849;-83
2022/03/16 01:06:56;;;;;;;;;;;21.90;27.90;;;;;;691208;28;854;-83
2022/03/16 01:07:16;;;;;;;;;;;21.90;27.80;;;;;;691272;28;853;-83
2022/03/16 01:07:37;;;;;;;;;;;21.90;27.90;;;;;;691326;28;930;-83
2022/03/16 01:07:58;;;;;;;;;;;21.90;28.30;;;;;;691453;28;823;-84
2022/03/16 01:08:18;;;;;;;;;;;21.90;27.80;;;;;;691257;28;1507;-83
2022/03/16 01:08:39;;;;;;;;;;;21.90;27.80;;;;;;688570;28;1342;-83
2022/03/16 01:09:00;;;;;;;;;;;21.90;27.80;;;;;;688735;28;847;-83
2022/03/16 01:09:20;;;;;;;;;;;21.90;28.00;;;;;;688775;28;819;-83
2022/03/16 01:09:41;;;;;;;;;;;21.90;27.80;;;;;;688642;28;839;-84
2022/03/16 01:10:02;;;;;;;;;;;21.90;27.90;;;;;;688800;28;1217;-83
2022/03/16 01:10:22;;;;;;;;;;;21.90;27.80;;;;;;691230;28;1069;-83
2022/03/16 01:10:43;;;;;;;;;;;21.90;27.90;;;;;;688556;28;1236;-84
2022/03/16 01:11:04;;;;;;;;;;;21.90;27.90;;;;;;688638;28;886;-83
2022/03/16 01:11:24;;;;;;;;;;;21.90;27.80;;;;;;685815;28;1474;-82
2022/03/16 01:11:45;;;;;;;;;;;21.90;28.60;;;;;;686378;28;823;-83
2022/03/16 01:12:06;;;;;;;;;;;21.90;28.90;;;;;;688628;28;819;-83
2022/03/16 01:12:27;;;;;;;;;;;21.90;27.80;;;;;;688842;28;1185;-83
2022/03/16 01:12:48;;;;;;;;;;;21.90;28.40;;;;;;691247;28;1484;-84
2022/03/16 01:13:08;;;;;;;;;;;21.90;27.90;;;;;;688991;28;1285;-84
2022/03/16 01:13:29;;;;;;;;;;;21.90;27.90;;;;;;688460;28;1504;-84
2022/03/16 01:13:49;;;;;;;;;;;21.90;28.00;;;;;;688462;28;1304;-83
2022/03/16 01:14:10;;;;;;;;;;;21.90;28.00;;;;;;688566;28;1242;-84
2022/03/16 01:14:30;;;;;;;;;;;21.90;27.90;;;;;;688709;28;1253;-83
2022/03/16 01:14:51;;;;;;;;;;;21.90;27.90;;;;;;688589;28;1497;-84
2022/03/16 01:15:11;;;;;;;;;;;21.90;28.00;;;;;;691619;28;846;-83
2022/03/16 01:15:32;;;;;;;;;;;21.90;27.90;;;;;;693848;28;1333;-83
2022/03/16 01:15:53;;;;;;;;;;;21.90;28.20;;;;;;694004;28;878;-84
2022/03/16 01:16:13;;;;;;;;;;;21.90;29.30;;;;;;694051;28;799;-83
2022/03/16 01:16:35;;;;;;;;;;;23.30;28.70;;;;;;691189;28;1257;-82
2022/03/16 01:16:55;;;;;;;;;;;21.90;28.10;;;;;;691154;28;1914;-83
2022/03/16 01:17:16;;;;;;;;;;;21.90;28.10;;;;;;688389;28;1292;-83
2022/03/16 01:17:37;;;;;;;;;;;21.90;27.90;;;;;;688501;28;910;-84
2022/03/16 01:17:57;;;;;;;;;;;21.90;27.90;;;;;;688514;28;822;-84
2022/03/16 01:18:18;;;;;;;;;;;21.90;28.00;;;;;;689066;28;791;-84
2022/03/16 01:18:38;;;;;;;;;;;21.90;27.90;;;;;;691192;28;1230;-83
2022/03/16 01:18:59;;;;;;;;;;;21.90;27.90;;;;;;688737;28;1304;-84
2022/03/16 01:19:19;;;;;;;;;;;21.90;27.80;;;;;;688490;28;1567;-84
2022/03/16 01:19:40;;;;;;;;;;;21.90;27.90;;;;;;686007;28;1216;-84
2022/03/16 01:20:00;;;;;;;;;;;21.90;28.20;;;;;;683094;28;1809;-83
2022/03/16 01:20:21;;;;;;;;;;;21.90;28.00;;;;;;683123;29;902;-83
2022/03/16 01:20:42;;;;;;;;;;;21.90;28.80;;;;;;680735;29;1622;-84
2022/03/16 01:21:06;;;;;;;;;;;21.90;28.10;;;;;;683476;28;879;-83
2022/03/16 01:21:27;;;;;;;;;;;21.90;27.80;;;;;;686542;28;855;-83
2022/03/16 01:21:48;;;;;;;;;;;21.90;27.80;;;;;;689326;28;965;-84
2022/03/16 01:22:08;;;;;;;;;;;21.90;28.10;;;;;;691304;28;835;-84
2022/03/16 01:22:29;;;;;;;;;;;21.90;28.10;;;;;;691323;28;811;-83
2022/03/16 01:22:49;;;;;;;;;;;21.90;28.40;;;;;;691135;28;1241;-83
2022/03/16 01:23:10;;;;;;;;;;;21.90;28.00;;;;;;688617;28;1183;-83
2022/03/16 01:23:31;;;;;;;;;;;21.90;28.00;;;;;;688605;28;783;-83
2022/03/16 01:23:52;;;;;;;;;;;21.90;28.10;;;;;;685202;28;1180;-83
2022/03/16 01:24:12;;;;;;;;;;;21.90;28.20;;;;;;683416;28;1493;-83
2022/03/16 01:24:33;;;;;;;;;;;21.90;28.70;;;;;;683409;28;1225;-84
2022/03/16 01:24:54;;;;;;;;;;;21.90;28.00;;;;;;683382;28;878;-84
2022/03/16 01:25:15;;;;;;;;;;;21.90;27.80;;;;;;685814;28;1252;-83
2022/03/16 01:25:35;;;;;;;;;;;21.90;28.00;;;;;;686158;28;878;-84
2022/03/16 01:25:56;;;;;;;;;;;19.50;27.00;;;;;;688866;28;985;-84
2022/03/16 01:26:17;;;;;;;;;;;21.90;28.50;;;;;;691292;28;787;-84
2022/03/16 01:26:38;;;;;;;;;;;21.90;28.10;;;;;;691124;28;1340;-84
2022/03/16 01:26:59;;;;;;;;;;;21.90;27.90;;;;;;688777;28;1235;-84
2022/03/16 01:27:19;;;;;;;;;;;21.90;28.00;;;;;;691208;28;835;-83
2022/03/16 01:27:40;;;;;;;;;;;21.90;27.90;;;;;;691092;28;954;-84
2022/03/16 01:28:00;;;;;;;;;;;21.90;27.90;;;;;;691118;28;878;-84
2022/03/16 01:28:21;;;;;;;;;;;21.90;28.70;;;;;;691168;28;1237;-83
2022/03/16 01:28:41;;;;;;;;;;;21.90;28.10;;;;;;688637;28;1272;-84
2022/03/16 01:29:02;;;;;;;;;;;21.90;28.10;;;;;;691286;28;882;-84
2022/03/16 01:29:24;;;;;;;;;;;21.80;28.50;;;;;;691179;28;870;-83
2022/03/16 01:29:45;;;;;;;;;;;21.90;29.00;;;;;;691184;28;843;-83
2022/03/16 01:30:05;;;;;;;;;;;21.90;28.30;;;;;;688536;28;854;-84
2022/03/16 01:30:26;;;;;;;;;;;21.90;27.80;;;;;;688995;28;1149;-84
2022/03/16 01:30:47;;;;;;;;;;;21.90;28.20;;;;;;691202;28;826;-84
2022/03/16 01:31:07;;;;;;;;;;;21.90;28.10;;;;;;691258;28;922;-84
2022/03/16 01:31:28;;;;;;;;;;;21.90;28.00;;;;;;688464;28;831;-84
2022/03/16 01:31:48;;;;;;;;;;;21.90;28.10;;;;;;688591;28;1346;-84
2022/03/16 01:32:09;;;;;;;;;;;21.80;28.10;;;;;;691163;28;740;-83
2022/03/16 01:32:29;;;;;;;;;;;21.80;27.90;;;;;;691103;28;1342;-84
2022/03/16 01:32:50;;;;;;;;;;;21.90;28.60;;;;;;691233;28;875;-84
2022/03/16 01:33:10;;;;;;;;;;;21.90;28.10;;;;;;691191;28;838;-83
2022/03/16 01:33:31;;;;;;;;;;;21.90;28.30;;;;;;691265;28;964;-84
2022/03/16 01:33:51;;;;;;;;;;;21.90;28.50;;;;;;691190;28;870;-83
2022/03/16 01:34:12;;;;;;;;;;;21.80;28.00;;;;;;691232;28;863;-84
2022/03/16 01:34:35;;;;;;;;;;;21.80;28.00;;;;;;691375;28;918;-84
2022/03/16 01:34:55;;;;;;;;;;;21.80;28.00;;;;;;691362;28;826;-84
2022/03/16 01:35:16;;;;;;;;;;;21.80;29.10;;;;;;691129;28;858;-84
2022/03/16 01:35:36;;;;;;;;;;;21.80;28.40;;;;;;691150;28;1100;-84
2022/03/16 01:35:57;;;;;;;;;;;21.80;28.00;;;;;;691121;28;1380;-84
2022/03/16 01:36:18;;;;;;;;;;;21.80;28.70;;;;;;691254;28;842;-86
2022/03/16 01:36:38;;;;;;;;;;;21.80;28.00;;;;;;691259;28;878;-84
2022/03/16 01:37:00;;;;;;;;;;;21.80;28.40;;;;;;688689;28;1958;-83
2022/03/16 01:37:20;;;;;;;;;;;21.80;28.50;;;;;;691232;28;811;-84
2022/03/16 01:37:43;;;;;;;;;;;21.80;27.90;;;;;;691147;28;906;-84
2022/03/16 01:38:03;;;;;;;;;;;21.80;28.40;;;;;;688369;28;1357;-84
2022/03/16 01:38:24;;;;;;;;;;;21.90;28.50;;;;;;685754;28;870;-83
2022/03/16 01:38:45;;;;;;;;;;;21.80;28.00;;;;;;686565;28;1256;-84
2022/03/16 01:39:06;;;;;;;;;;;21.80;28.10;;;;;;688473;28;850;-83
2022/03/16 01:39:26;;;;;;;;;;;21.80;28.00;;;;;;685728;28;1342;-83
2022/03/16 01:39:47;;;;;;;;;;;21.90;28.00;;;;;;685837;28;895;-83
2022/03/16 01:40:07;;;;;;;;;;;21.80;27.80;;;;;;686117;28;811;-84
2022/03/16 01:40:28;;;;;;;;;;;21.80;27.80;;;;;;688885;28;858;-84
2022/03/16 01:40:49;;;;;;;;;;;21.80;28.20;;;;;;688401;28;1310;-83
2022/03/16 01:41:09;;;;;;;;;;;21.80;27.90;;;;;;688656;28;874;-84
2022/03/16 01:41:30;;;;;;;;;;;21.80;28.00;;;;;;688390;28;1071;-84
2022/03/16 01:41:50;;;;;;;;;;;21.80;27.80;;;;;;688512;28;847;-83
2022/03/16 01:42:11;;;;;;;;;;;21.80;28.00;;;;;;688474;28;823;-84
2022/03/16 01:42:35;;;;;;;;;;;21.80;27.90;;;;;;688336;28;1521;-84
2022/03/16 01:42:55;;;;;;;;;;;21.80;27.80;;;;;;686414;28;1089;-83
2022/03/16 01:43:16;;;;;;;;;;;21.80;28.90;;;;;;686578;28;1233;-82
2022/03/16 01:43:37;;;;;;;;;;;21.80;28.10;;;;;;688401;28;1000;-83
2022/03/16 01:43:57;;;;;;;;;;;21.80;28.30;;;;;;688413;28;787;-83
2022/03/16 01:44:38;;;;;;;;;;;21.40;27.80;;;;;;688392;28;1228;-85
2022/03/16 01:44:58;;;;;;;;;;;21.80;27.80;;;;;;691019;28;1106;-84
2022/03/16 01:45:19;;;;;;;;;;;21.80;27.90;;;;;;693974;28;787;-84
2022/03/16 01:45:49;;;;;;;;;;;21.80;28.00;;;;;;691104;28;1350;-84
2022/03/16 01:46:10;;;;;;;;;;;21.80;27.80;;;;;;691221;28;836;-83
2022/03/16 01:46:31;;;;;;;;;;;21.80;27.90;;;;;;691222;28;803;-84
2022/03/16 01:46:51;;;;;;;;;;;21.80;28.60;;;;;;688256;28;1366;-84
2022/03/16 01:47:12;;;;;;;;;;;21.80;28.10;;;;;;688552;28;1570;-83
2022/03/16 01:47:33;;;;;;;;;;;21.80;28.10;;;;;;690306;28;831;-83
2022/03/16 01:47:53;;;;;;;;;;;21.70;28.80;;;;;;691063;28;1473;-84
2022/03/16 01:48:14;;;;;;;;;;;21.80;28.60;;;;;;688373;28;1184;-84
2022/03/16 01:48:34;;;;;;;;;;;21.80;29.10;;;;;;688561;28;929;-83
2022/03/16 01:48:55;;;;;;;;;;;21.80;28.20;;;;;;688419;28;1233;-84
2022/03/16 01:49:16;;;;;;;;;;;23.60;29.20;;;;;;685579;28;1366;-84
2022/03/16 01:49:36;;;;;;;;;;;21.80;28.90;;;;;;685867;28;930;-84
2022/03/16 01:49:57;;;;;;;;;;;21.80;28.20;;;;;;686042;28;921;-84
2022/03/16 01:50:17;;;;;;;;;;;21.80;28.10;;;;;;688363;28;1222;-84
2022/03/16 01:50:38;;;;;;;;;;;21.90;28.20;;;;;;688493;28;791;-84
2022/03/16 01:50:59;;;;;;;;;;;21.90;28.10;;;;;;688634;28;1238;-84
2022/03/16 01:51:20;;;;;;;;;;;21.90;28.50;;;;;;691188;28;1399;-84
2022/03/16 01:51:41;;;;;;;;;;;21.90;28.00;;;;;;691250;28;846;-84
2022/03/16 01:52:02;;;;;;;;;;;21.90;28.80;;;;;;691580;28;870;-83
2022/03/16 01:52:23;;;;;;;;;;;21.90;28.10;;;;;;693918;28;914;-84
2022/03/16 01:52:44;;;;;;;;;;;21.90;28.00;;;;;;693323;28;862;-83
2022/03/16 01:53:05;;;;;;;;;;;21.90;28.10;;;;;;691077;28;1105;-84
2022/03/16 01:53:26;;;;;;;;;;;21.90;28.40;;;;;;691234;28;834;-84
2022/03/16 01:53:47;;;;;;;;;;;21.90;28.10;;;;;;691183;28;838;-83
2022/03/16 01:54:08;;;;;;;;;;;21.90;27.90;;;;;;691203;28;853;-84
2022/03/16 01:54:29;;;;;;;;;;;21.90;27.90;;;;;;688395;28;882;-84
2022/03/16 01:54:50;;;;;;;;;;;21.80;28.10;;;;;;688911;28;905;-84
2022/03/16 01:55:10;;;;;;;;;;;21.90;27.90;;;;;;691169;28;854;-83
2022/03/16 01:55:31;;;;;;;;;;;21.90;28.00;;;;;;691310;28;775;-83
2022/03/16 01:55:52;;;;;;;;;;;21.90;28.10;;;;;;691109;28;1431;-84
2022/03/16 01:56:14;;;;;;;;;;;21.90;28.00;;;;;;688700;28;914;-83
2022/03/16 01:56:34;;;;;;;;;;;21.90;27.80;;;;;;691172;28;944;-84
2022/03/16 01:56:55;;;;;;;;;;;21.90;28.00;;;;;;688310;28;1960;-84
2022/03/16 01:57:16;;;;;;;;;;;21.90;28.30;;;;;;685765;28;1307;-83
2022/03/16 01:57:38;;;;;;;;;;;21.90;28.10;;;;;;683029;28;1130;-84
2022/03/16 01:58:00;;;;;;;;;;;21.90;27.90;;;;;;683827;28;970;-84
2022/03/16 01:58:21;;;;;;;;;;;21.90;27.80;;;;;;685819;28;830;-83
2022/03/16 01:58:42;;;;;;;;;;;21.80;28.50;;;;;;686460;28;851;-84
2022/03/16 01:59:02;;;;;;;;;;;21.80;27.80;;;;;;686469;28;1519;-83
2022/03/16 01:59:23;;;;;;;;;;;21.90;28.10;;;;;;689124;28;894;-83
2022/03/16 01:59:44;;;;;;;;;;;21.90;28.10;;;;;;691310;28;862;-84
2022/03/16 02:00:08;;;;;;;;;;;21.90;27.90;;;;;;688329;28;1438;-83
2022/03/16 02:00:29;;;;;;;;;;;21.90;27.90;;;;;;688405;28;795;-84
2022/03/16 02:00:51;;;;;;;;;;;21.80;28.10;;;;;;686581;28;1468;-83
2022/03/16 02:01:13;;;;;;;;;;;21.90;28.20;;;;;;688469;28;744;-83
2022/03/16 02:01:34;;;;;;;;;;;21.90;28.10;;;;;;688457;28;822;-84
2022/03/16 02:01:54;;;;;;;;;;;21.90;28.10;;;;;;686872;28;1136;-83
2022/03/16 02:02:15;;;;;;;;;;;21.90;28.20;;;;;;688513;28;862;-84
2022/03/16 02:02:36;;;;;;;;;;;21.90;27.90;;;;;;689161;28;885;-83
2022/03/16 02:02:56;;;;;;;;;;;21.90;28.20;;;;;;688584;28;1416;-84
2022/03/16 02:03:17;;;;;;;;;;;18.70;26.50;;;;;;688477;28;878;-84
2022/03/16 02:03:37;;;;;;;;;;;21.90;28.10;;;;;;686067;28;1295;-84
2022/03/16 02:03:58;;;;;;;;;;;21.90;28.40;;;;;;685681;28;1206;-84
2022/03/16 02:04:18;;;;;;;;;;;21.90;28.10;;;;;;682925;28;1212;-84
2022/03/16 02:04:40;;;;;;;;;;;21.90;28.00;;;;;;683562;28;1202;-84
2022/03/16 02:05:00;;;;;;;;;;;21.90;27.90;;;;;;683248;28;874;-83
2022/03/16 02:05:21;;;;;;;;;;;21.90;27.90;;;;;;683363;28;1496;-84
2022/03/16 02:05:42;;;;;;;;;;;21.90;28.30;;;;;;683533;28;831;-84
2022/03/16 02:06:02;;;;;;;;;;;20.00;27.50;;;;;;686173;28;898;-83